sensor_id;sensor_type;location;lat;lon;timestamp;pressure;altitude;pressure_sealevel;temperature;humidity
38780;BME280;29273;49.962;9.768;2023-12-04T00:01:57;100172.16;;;0.64;55.42
38780;BME280;29273;49.962;9.768;2023-12-04T00:04:23;100170.50;;;0.63;55.68
38780;BME280;29273;49.962;9.768;2023-12-04T00:06:49;100180.94;;;0.63;55.72
38780;BME280;29273;49.962;9.768;2023-12-04T00:09:14;100173.97;;;0.64;55.95
38780;BME280;29273;49.962;9.768;2023-12-04T00:11:40;100168.75;;;0.64;55.91
38780;BME280;29273;49.962;9.768;2023-12-04T00:14:05;100162.56;;;0.65;55.86
38780;BME280;29273;49.962;9.768;2023-12-04T00:16:33;100164.91;;;0.68;56.06
38780;BME280;29273;49.962;9.768;2023-12-04T00:18:59;100159.81;;;0.66;55.90
38780;BME280;29273;49.962;9.768;2023-12-04T00:21:25;100155.59;;;0.65;55.95
38780;BME280;29273;49.962;9.768;2023-12-04T00:23:50;100153.66;;;0.67;55.91
38780;BME280;29273;49.962;9.768;2023-12-04T00:26:16;100153.53;;;0.69;56.07
38780;BME280;29273;49.962;9.768;2023-12-04T00:28:41;100155.19;;;0.70;56.07
38780;BME280;29273;49.962;9.768;2023-12-04T00:31:08;100156.84;;;0.71;56.20
38780;BME280;29273;49.962;9.768;2023-12-04T00:33:33;100151.75;;;0.69;55.92
38780;BME280;29273;49.962;9.768;2023-12-04T00:35:59;100155.19;;;0.70;55.83
38780;BME280;29273;49.962;9.768;2023-12-04T00:38:24;100150.94;;;0.69;55.82
38780;BME280;29273;49.962;9.768;2023-12-04T00:40:50;100147.50;;;0.68;55.62
38780;BME280;29273;49.962;9.768;2023-12-04T00:43:16;100143.25;;;0.67;55.59
38780;BME280;29273;49.962;9.768;2023-12-04T00:45:41;100138.97;;;0.66;55.64
38780;BME280;29273;49.962;9.768;2023-12-04T00:48:07;100131.28;;;0.65;55.82
38780;BME280;29273;49.962;9.768;2023-12-04T00:50:33;100122.63;;;0.64;55.61
38780;BME280;29273;49.962;9.768;2023-12-04T00:52:58;100121.69;;;0.65;56.19
38780;BME280;29273;49.962;9.768;2023-12-04T00:55:24;100119.91;;;0.66;56.17
38780;BME280;29273;49.962;9.768;2023-12-04T00:57:49;100118.13;;;0.66;56.29
38780;BME280;29273;49.962;9.768;2023-12-04T01:00:15;100124.06;;;0.68;56.10
38780;BME280;29273;49.962;9.768;2023-12-04T01:02:41;100123.88;;;0.70;56.29
38780;BME280;29273;49.962;9.768;2023-12-04T01:05:07;100124.75;;;0.70;56.22
38780;BME280;29273;49.962;9.768;2023-12-04T01:07:32;100126.25;;;0.73;56.38
38780;BME280;29273;49.962;9.768;2023-12-04T01:09:57;100128.03;;;0.72;56.44
38780;BME280;29273;49.962;9.768;2023-12-04T01:12:23;100129.56;;;0.75;56.43
38780;BME280;29273;49.962;9.768;2023-12-04T01:14:48;100122.44;;;0.77;56.27
38780;BME280;29273;49.962;9.768;2023-12-04T01:17:14;100121.47;;;0.78;56.10
38780;BME280;29273;49.962;9.768;2023-12-04T01:19:40;100123.25;;;0.78;56.22
38780;BME280;29273;49.962;9.768;2023-12-04T01:22:05;100126.69;;;0.78;56.18
38780;BME280;29273;49.962;9.768;2023-12-04T01:24:32;100127.25;;;0.82;56.39
38780;BME280;29273;49.962;9.768;2023-12-04T01:26:57;100120.53;;;0.79;56.08
38780;BME280;29273;49.962;9.768;2023-12-04T01:29:23;100114.50;;;0.79;56.12
38780;BME280;29273;49.962;9.768;2023-12-04T01:31:48;100105.94;;;0.77;55.99
38780;BME280;29273;49.962;9.768;2023-12-04T01:34:14;100107.75;;;0.76;56.10
38780;BME280;29273;49.962;9.768;2023-12-04T01:36:40;100108.56;;;0.77;56.05
38780;BME280;29273;49.962;9.768;2023-12-04T01:39:06;100106.09;;;0.75;55.81
38780;BME280;29273;49.962;9.768;2023-12-04T01:41:32;100105.38;;;0.73;55.91
38780;BME280;29273;49.962;9.768;2023-12-04T01:43:57;100104.56;;;0.72;55.77
38780;BME280;29273;49.962;9.768;2023-12-04T01:46:23;100102.91;;;0.71;55.96
38780;BME280;29273;49.962;9.768;2023-12-04T01:48:48;100105.50;;;0.71;55.74
38780;BME280;29273;49.962;9.768;2023-12-04T01:51:15;100096.88;;;0.71;55.77
38780;BME280;29273;49.962;9.768;2023-12-04T01:53:42;100093.59;;;0.69;55.67
38780;BME280;29273;49.962;9.768;2023-12-04T01:56:08;100101.53;;;0.67;55.63
38780;BME280;29273;49.962;9.768;2023-12-04T01:58:34;100100.84;;;0.65;55.54
38780;BME280;29273;49.962;9.768;2023-12-04T02:01:00;100097.53;;;0.63;55.70
38780;BME280;29273;49.962;9.768;2023-12-04T02:03:26;100084.78;;;0.60;55.70
38780;BME280;29273;49.962;9.768;2023-12-04T02:05:51;100081.44;;;0.58;55.56
38780;BME280;29273;49.962;9.768;2023-12-04T02:08:18;100071.88;;;0.59;55.85
38780;BME280;29273;49.962;9.768;2023-12-04T02:10:44;100071.03;;;0.58;55.92
38780;BME280;29273;49.962;9.768;2023-12-04T02:13:10;100064.75;;;0.61;56.06
38780;BME280;29273;49.962;9.768;2023-12-04T02:15:35;100063.91;;;0.60;55.95
38780;BME280;29273;49.962;9.768;2023-12-04T02:18:03;100065.41;;;0.63;56.37
38780;BME280;29273;49.962;9.768;2023-12-04T02:20:35;100051.31;;;0.65;56.36
38780;BME280;29273;49.962;9.768;2023-12-04T02:23:02;100062.00;;;0.62;56.32
38780;BME280;29273;49.962;9.768;2023-12-04T02:25:28;100053.22;;;0.63;56.01
38780;BME280;29273;49.962;9.768;2023-12-04T02:27:56;100045.13;;;0.66;56.35
38780;BME280;29273;49.962;9.768;2023-12-04T02:30:24;100048.00;;;0.63;55.89
38780;BME280;29273;49.962;9.768;2023-12-04T02:32:51;100038.41;;;0.64;56.06
38780;BME280;29273;49.962;9.768;2023-12-04T02:35:22;100034.69;;;0.66;56.33
38780;BME280;29273;49.962;9.768;2023-12-04T02:37:48;100033.19;;;0.64;56.24
38780;BME280;29273;49.962;9.768;2023-12-04T02:40:15;100033.19;;;0.64;56.32
38780;BME280;29273;49.962;9.768;2023-12-04T02:42:40;100029.75;;;0.63;56.40
38780;BME280;29273;49.962;9.768;2023-12-04T02:45:06;100029.75;;;0.63;56.34
38780;BME280;29273;49.962;9.768;2023-12-04T02:47:32;100028.81;;;0.64;56.40
38780;BME280;29273;49.962;9.768;2023-12-04T02:49:58;100030.59;;;0.64;56.52
38780;BME280;29273;49.962;9.768;2023-12-04T02:52:23;100029.75;;;0.63;56.54
38780;BME280;29273;49.962;9.768;2023-12-04T02:54:49;100023.59;;;0.64;56.52
38780;BME280;29273;49.962;9.768;2023-12-04T02:57:14;100026.88;;;0.66;56.83
38780;BME280;29273;49.962;9.768;2023-12-04T02:59:40;100024.28;;;0.66;56.85
38780;BME280;29273;49.962;9.768;2023-12-04T03:02:05;100017.31;;;0.67;56.55
38780;BME280;29273;49.962;9.768;2023-12-04T03:04:31;100023.34;;;0.67;56.61
38780;BME280;29273;49.962;9.768;2023-12-04T03:06:57;100021.41;;;0.69;56.64
38780;BME280;29273;49.962;9.768;2023-12-04T03:09:22;100017.00;;;0.70;56.82
38780;BME280;29273;49.962;9.768;2023-12-04T03:11:48;100014.28;;;0.71;56.64
38780;BME280;29273;49.962;9.768;2023-12-04T03:14:13;100008.13;;;0.72;56.63
38780;BME280;29273;49.962;9.768;2023-12-04T03:16:39;100004.56;;;0.73;56.72
38780;BME280;29273;49.962;9.768;2023-12-04T03:19:05;100007.97;;;0.74;56.69
38780;BME280;29273;49.962;9.768;2023-12-04T03:21:30;100004.44;;;0.75;56.80
38780;BME280;29273;49.962;9.768;2023-12-04T03:23:56;100002.63;;;0.76;56.45
38780;BME280;29273;49.962;9.768;2023-12-04T03:26:21;99996.63;;;0.75;56.51
38780;BME280;29273;49.962;9.768;2023-12-04T03:28:47;99993.16;;;0.74;56.52
38780;BME280;29273;49.962;9.768;2023-12-04T03:31:12;99985.47;;;0.73;56.43
38780;BME280;29273;49.962;9.768;2023-12-04T03:33:38;99985.34;;;0.74;56.65
38780;BME280;29273;49.962;9.768;2023-12-04T03:36:04;99980.13;;;0.74;56.55
38780;BME280;29273;49.962;9.768;2023-12-04T03:38:29;99978.19;;;0.77;56.37
38780;BME280;29273;49.962;9.768;2023-12-04T03:40:55;99977.25;;;0.78;56.83
38780;BME280;29273;49.962;9.768;2023-12-04T03:43:20;99977.94;;;0.80;56.82
38780;BME280;29273;49.962;9.768;2023-12-04T03:45:46;99982.19;;;0.81;56.82
38780;BME280;29273;49.962;9.768;2023-12-04T03:48:11;99979.47;;;0.82;56.84
38780;BME280;29273;49.962;9.768;2023-12-04T03:50:37;99962.03;;;0.83;56.86
38780;BME280;29273;49.962;9.768;2023-12-04T03:53:02;99973.84;;;0.87;57.19
38780;BME280;29273;49.962;9.768;2023-12-04T03:55:28;99964.91;;;0.89;57.06
38780;BME280;29273;49.962;9.768;2023-12-04T03:57:54;99965.47;;;0.93;56.96
38780;BME280;29273;49.962;9.768;2023-12-04T04:00:20;99963.56;;;0.95;56.99
38780;BME280;29273;49.962;9.768;2023-12-04T04:02:46;99958.06;;;0.98;56.88
38780;BME280;29273;49.962;9.768;2023-12-04T04:05:11;99955.31;;;1.00;57.03
38780;BME280;29273;49.962;9.768;2023-12-04T04:07:37;99953.41;;;1.02;57.07
38780;BME280;29273;49.962;9.768;2023-12-04T04:10:02;99951.50;;;1.04;56.99
38780;BME280;29273;49.962;9.768;2023-12-04T04:12:30;99933.91;;;1.06;56.90
38780;BME280;29273;49.962;9.768;2023-12-04T04:14:56;99935.44;;;1.08;56.83
38780;BME280;29273;49.962;9.768;2023-12-04T04:17:22;99924.03;;;1.09;56.67
38780;BME280;29273;49.962;9.768;2023-12-04T04:19:47;99918.69;;;1.11;56.73
38780;BME280;29273;49.962;9.768;2023-12-04T04:22:13;99921.16;;;1.13;56.92
38780;BME280;29273;49.962;9.768;2023-12-04T04:24:38;99917.59;;;1.14;56.76
38780;BME280;29273;49.962;9.768;2023-12-04T04:27:04;99913.06;;;1.16;56.78
38780;BME280;29273;49.962;9.768;2023-12-04T04:29:29;99914.72;;;1.17;56.86
38780;BME280;29273;49.962;9.768;2023-12-04T04:31:55;99902.47;;;1.17;56.73
38780;BME280;29273;49.962;9.768;2023-12-04T04:34:21;99903.16;;;1.19;56.82
38780;BME280;29273;49.962;9.768;2023-12-04T04:36:46;99900.41;;;1.21;56.72
38780;BME280;29273;49.962;9.768;2023-12-04T04:39:13;99894.13;;;1.23;56.49
38780;BME280;29273;49.962;9.768;2023-12-04T04:41:39;99897.53;;;1.24;56.80
38780;BME280;29273;49.962;9.768;2023-12-04T04:44:05;99888.06;;;1.23;56.25
38780;BME280;29273;49.962;9.768;2023-12-04T04:46:31;99893.94;;;1.25;56.33
38780;BME280;29273;49.962;9.768;2023-12-04T04:48:56;99885.44;;;1.23;55.80
38780;BME280;29273;49.962;9.768;2023-12-04T04:51:22;99895.06;;;1.22;56.27
38780;BME280;29273;49.962;9.768;2023-12-04T04:53:48;99889.97;;;1.21;56.21
38780;BME280;29273;49.962;9.768;2023-12-04T04:56:14;99888.19;;;1.21;56.47
38780;BME280;29273;49.962;9.768;2023-12-04T04:58:40;99885.44;;;1.23;56.44
38780;BME280;29273;49.962;9.768;2023-12-04T05:01:06;99888.91;;;1.23;56.46
38780;BME280;29273;49.962;9.768;2023-12-04T05:03:31;99886.28;;;1.23;56.60
38780;BME280;29273;49.962;9.768;2023-12-04T05:05:57;99886.13;;;1.25;56.56
38780;BME280;29273;49.962;9.768;2023-12-04T05:08:22;99879.13;;;1.25;56.63
38780;BME280;29273;49.962;9.768;2023-12-04T05:10:48;99880.75;;;1.26;56.39
38780;BME280;29273;49.962;9.768;2023-12-04T05:13:13;99881.47;;;1.28;56.41
38780;BME280;29273;49.962;9.768;2023-12-04T05:15:39;99878.00;;;1.28;56.51
38780;BME280;29273;49.962;9.768;2023-12-04T05:18:04;99879.94;;;1.26;55.10
38780;BME280;29273;49.962;9.768;2023-12-04T05:20:30;99873.63;;;1.28;56.29
38780;BME280;29273;49.962;9.768;2023-12-04T05:22:56;99879.00;;;1.27;56.20
38780;BME280;29273;49.962;9.768;2023-12-04T05:25:22;99880.09;;;1.24;56.23
38780;BME280;29273;49.962;9.768;2023-12-04T05:27:47;99880.09;;;1.24;56.35
38780;BME280;29273;49.962;9.768;2023-12-04T05:30:13;99881.22;;;1.22;56.13
38780;BME280;29273;49.962;9.768;2023-12-04T05:32:39;99887.38;;;1.21;56.30
38780;BME280;29273;49.962;9.768;2023-12-04T05:35:04;99882.16;;;1.21;56.39
38780;BME280;29273;49.962;9.768;2023-12-04T05:37:30;99889.16;;;1.20;56.57
38780;BME280;29273;49.962;9.768;2023-12-04T05:39:55;99885.72;;;1.20;56.40
38780;BME280;29273;49.962;9.768;2023-12-04T05:42:21;99876.94;;;1.21;56.55
38780;BME280;29273;49.962;9.768;2023-12-04T05:44:46;99883.94;;;1.20;56.43
38780;BME280;29273;49.962;9.768;2023-12-04T05:47:12;99869.09;;;1.21;56.72
38780;BME280;29273;49.962;9.768;2023-12-04T05:49:37;99876.81;;;1.22;56.64
38780;BME280;29273;49.962;9.768;2023-12-04T05:52:03;99876.00;;;1.22;56.33
38780;BME280;29273;49.962;9.768;2023-12-04T05:54:28;99868.03;;;1.23;56.67
38780;BME280;29273;49.962;9.768;2023-12-04T05:56:54;99864.44;;;1.24;56.69
38780;BME280;29273;49.962;9.768;2023-12-04T05:59:19;99867.03;;;1.24;56.69
38780;BME280;29273;49.962;9.768;2023-12-04T06:01:45;99867.03;;;1.24;56.63
38780;BME280;29273;49.962;9.768;2023-12-04T06:04:10;99867.72;;;1.26;56.96
38780;BME280;29273;49.962;9.768;2023-12-04T06:06:36;99872.81;;;1.28;56.76
38780;BME280;29273;49.962;9.768;2023-12-04T06:09:01;99871.97;;;1.27;56.70
38780;BME280;29273;49.962;9.768;2023-12-04T06:11:27;99870.19;;;1.28;56.59
38780;BME280;29273;49.962;9.768;2023-12-04T06:13:52;99872.81;;;1.28;56.43
38780;BME280;29273;49.962;9.768;2023-12-04T06:16:18;99872.81;;;1.28;56.57
38780;BME280;29273;49.962;9.768;2023-12-04T06:18:43;99871.72;;;1.31;56.73
38780;BME280;29273;49.962;9.768;2023-12-04T06:21:09;99862.09;;;1.31;56.75
38780;BME280;29273;49.962;9.768;2023-12-04T06:23:34;99861.13;;;1.32;56.72
38780;BME280;29273;49.962;9.768;2023-12-04T06:26:00;99850.56;;;1.34;56.78
38780;BME280;29273;49.962;9.768;2023-12-04T06:28:26;99852.19;;;1.35;56.82
38780;BME280;29273;49.962;9.768;2023-12-04T06:30:51;99847.81;;;1.35;56.66
38780;BME280;29273;49.962;9.768;2023-12-04T06:33:17;99845.06;;;1.37;56.53
38780;BME280;29273;49.962;9.768;2023-12-04T06:35:44;99846.00;;;1.36;56.42
38780;BME280;29273;49.962;9.768;2023-12-04T06:38:14;99842.16;;;1.40;56.83
38780;BME280;29273;49.962;9.768;2023-12-04T06:40:40;99848.63;;;1.36;56.40
38780;BME280;29273;49.962;9.768;2023-12-04T06:43:06;99843.41;;;1.36;56.38
38780;BME280;29273;49.962;9.768;2023-12-04T06:45:32;99837.38;;;1.35;56.21
38780;BME280;29273;49.962;9.768;2023-12-04T06:47:59;99839.00;;;1.36;56.43
38780;BME280;29273;49.962;9.768;2023-12-04T06:50:25;99833.09;;;1.34;56.25
38780;BME280;29273;49.962;9.768;2023-12-04T06:52:50;99835.72;;;1.34;56.28
38780;BME280;29273;49.962;9.768;2023-12-04T06:55:16;99838.47;;;1.33;56.13
38780;BME280;29273;49.962;9.768;2023-12-04T06:57:41;99836.00;;;1.31;56.19
38780;BME280;29273;49.962;9.768;2023-12-04T07:00:07;99827.34;;;1.31;56.33
38780;BME280;29273;49.962;9.768;2023-12-04T07:02:33;99826.53;;;1.30;56.23
38780;BME280;29273;49.962;9.768;2023-12-04T07:04:59;99827.34;;;1.31;56.12
38780;BME280;29273;49.962;9.768;2023-12-04T07:07:24;99820.75;;;1.26;55.94
38780;BME280;29273;49.962;9.768;2023-12-04T07:09:50;99822.56;;;1.26;56.18
38780;BME280;29273;49.962;9.768;2023-12-04T07:12:16;99827.78;;;1.26;56.11
38780;BME280;29273;49.962;9.768;2023-12-04T07:14:41;99824.63;;;1.22;56.17
38780;BME280;29273;49.962;9.768;2023-12-04T07:17:07;99830.50;;;1.24;56.18
38780;BME280;29273;49.962;9.768;2023-12-04T07:19:32;99827.22;;;1.22;56.04
38780;BME280;29273;49.962;9.768;2023-12-04T07:21:58;99830.66;;;1.23;56.20
38780;BME280;29273;49.962;9.768;2023-12-04T07:24:24;99832.44;;;1.22;56.11
38780;BME280;29273;49.962;9.768;2023-12-04T07:26:49;99825.56;;;1.21;55.72
38780;BME280;29273;49.962;9.768;2023-12-04T07:29:15;99825.56;;;1.21;55.56
38780;BME280;29273;49.962;9.768;2023-12-04T07:31:41;99826.56;;;1.20;55.80
38780;BME280;29273;49.962;9.768;2023-12-04T07:34:07;99835.34;;;1.19;56.07
38780;BME280;29273;49.962;9.768;2023-12-04T07:36:32;99831.91;;;1.19;56.27
38780;BME280;29273;49.962;9.768;2023-12-04T07:38:58;99825.19;;;1.16;56.24
38780;BME280;29273;49.962;9.768;2023-12-04T07:41:23;99825.31;;;1.15;56.27
38780;BME280;29273;49.962;9.768;2023-12-04T07:43:49;99830.53;;;1.15;56.36
38780;BME280;29273;49.962;9.768;2023-12-04T07:46:14;99828.75;;;1.15;56.49
38780;BME280;29273;49.962;9.768;2023-12-04T07:48:40;99828.63;;;1.17;56.53
38780;BME280;29273;49.962;9.768;2023-12-04T07:51:06;99826.69;;;1.19;56.55
38780;BME280;29273;49.962;9.768;2023-12-04T07:53:32;99822.16;;;1.21;56.64
38780;BME280;29273;49.962;9.768;2023-12-04T07:56:01;99813.06;;;1.25;57.15
38780;BME280;29273;49.962;9.768;2023-12-04T07:58:27;99816.66;;;1.24;56.95
38780;BME280;29273;49.962;9.768;2023-12-04T08:00:53;99809.38;;;1.27;56.77
38780;BME280;29273;49.962;9.768;2023-12-04T08:03:18;99812.66;;;1.29;56.78
38780;BME280;29273;49.962;9.768;2023-12-04T08:05:44;99812.38;;;1.33;56.81
38780;BME280;29273;49.962;9.768;2023-12-04T08:08:09;99808.81;;;1.34;56.70
38780;BME280;29273;49.962;9.768;2023-12-04T08:10:35;99807.56;;;1.38;56.82
38780;BME280;29273;49.962;9.768;2023-12-04T08:13:00;99804.81;;;1.39;56.73
38780;BME280;29273;49.962;9.768;2023-12-04T08:15:26;99800.97;;;1.43;57.14
38780;BME280;29273;49.962;9.768;2023-12-04T08:17:51;99791.03;;;1.47;57.07
38780;BME280;29273;49.962;9.768;2023-12-04T08:20:17;99792.53;;;1.50;56.97
38780;BME280;29273;49.962;9.768;2023-12-04T08:22:42;99788.69;;;1.54;56.92
38780;BME280;29273;49.962;9.768;2023-12-04T08:25:11;99788.41;;;1.57;56.82
38780;BME280;29273;49.962;9.768;2023-12-04T08:27:36;99784.66;;;1.59;56.82
38780;BME280;29273;49.962;9.768;2023-12-04T08:30:04;99787.53;;;1.66;56.96
38780;BME280;29273;49.962;9.768;2023-12-04T08:32:29;99776.94;;;1.67;56.44
38780;BME280;29273;49.962;9.768;2023-12-04T08:34:55;99786.16;;;1.72;56.74
38780;BME280;29273;49.962;9.768;2023-12-04T08:37:20;99791.75;;;1.77;56.79
38780;BME280;29273;49.962;9.768;2023-12-04T08:39:46;99786.25;;;1.80;56.79
38780;BME280;29273;49.962;9.768;2023-12-04T08:42:12;99787.72;;;1.82;55.96
38780;BME280;29273;49.962;9.768;2023-12-04T08:44:37;99786.63;;;1.85;56.53
38780;BME280;29273;49.962;9.768;2023-12-04T08:47:03;99792.38;;;1.89;56.26
38780;BME280;29273;49.962;9.768;2023-12-04T08:49:29;99785.22;;;1.91;56.69
38780;BME280;29273;49.962;9.768;2023-12-04T08:51:54;99784.91;;;1.94;56.48
38780;BME280;29273;49.962;9.768;2023-12-04T08:54:20;99786.41;;;1.96;56.67
38780;BME280;29273;49.962;9.768;2023-12-04T08:56:45;99776.66;;;1.98;56.32
38780;BME280;29273;49.962;9.768;2023-12-04T08:59:11;99762.59;;;1.99;56.66
38780;BME280;29273;49.962;9.768;2023-12-04T09:01:38;99756.13;;;2.03;56.60
38780;BME280;29273;49.962;9.768;2023-12-04T09:04:04;99755.16;;;2.04;56.79
38780;BME280;29273;49.962;9.768;2023-12-04T09:06:30;99747.16;;;2.06;56.29
38780;BME280;29273;49.962;9.768;2023-12-04T09:08:55;99736.44;;;2.09;56.58
38780;BME280;29273;49.962;9.768;2023-12-04T09:11:21;99741.34;;;2.12;56.32
38780;BME280;29273;49.962;9.768;2023-12-04T09:13:46;99738.59;;;2.14;56.63
38780;BME280;29273;49.962;9.768;2023-12-04T09:16:12;99735.69;;;2.17;56.46
38780;BME280;29273;49.962;9.768;2023-12-04T09:18:39;99735.41;;;2.20;56.86
38780;BME280;29273;49.962;9.768;2023-12-04T09:21:04;99734.25;;;2.22;56.71
38780;BME280;29273;49.962;9.768;2023-12-04T09:23:30;99742.47;;;2.28;56.81
38780;BME280;29273;49.962;9.768;2023-12-04T09:25:56;99743.97;;;2.30;56.54
38780;BME280;29273;49.962;9.768;2023-12-04T09:28:21;99744.50;;;2.34;56.85
38780;BME280;29273;49.962;9.768;2023-12-04T09:30:47;99736.22;;;2.38;56.92
38780;BME280;29273;49.962;9.768;2023-12-04T09:33:12;99734.94;;;2.43;56.97
38780;BME280;29273;49.962;9.768;2023-12-04T09:35:38;99726.78;;;2.46;56.73
38780;BME280;29273;49.962;9.768;2023-12-04T09:38:03;99717.66;;;2.50;56.98
38780;BME280;29273;49.962;9.768;2023-12-04T09:40:29;99703.47;;;2.52;56.83
38780;BME280;29273;49.962;9.768;2023-12-04T09:42:54;99702.38;;;2.55;56.86
38780;BME280;29273;49.962;9.768;2023-12-04T09:45:20;99691.56;;;2.58;56.46
38780;BME280;29273;49.962;9.768;2023-12-04T09:47:49;99675.75;;;2.59;56.49
38780;BME280;29273;49.962;9.768;2023-12-04T09:50:16;99679.72;;;2.64;56.70
38780;BME280;29273;49.962;9.768;2023-12-04T09:52:48;99679.72;;;2.64;56.68
38780;BME280;29273;49.962;9.768;2023-12-04T09:55:15;99674.31;;;2.65;56.21
38780;BME280;29273;49.962;9.768;2023-12-04T09:57:43;99660.94;;;2.68;56.22
38780;BME280;29273;49.962;9.768;2023-12-04T10:00:10;99652.25;;;2.68;56.45
38780;BME280;29273;49.962;9.768;2023-12-04T10:02:39;99644.13;;;2.71;56.37
38780;BME280;29273;49.962;9.768;2023-12-04T10:05:05;99646.56;;;2.72;56.84
38780;BME280;29273;49.962;9.768;2023-12-04T10:07:31;99639.03;;;2.69;56.06
38780;BME280;29273;49.962;9.768;2023-12-04T10:09:57;99639.88;;;2.70;55.90
38780;BME280;29273;49.962;9.768;2023-12-04T10:12:22;99614.53;;;2.70;55.98
38780;BME280;29273;49.962;9.768;2023-12-04T10:15:07;99608.16;;;2.73;56.79
38780;BME280;29273;49.962;9.768;2023-12-04T10:17:38;99602.78;;;2.74;56.69
38780;BME280;29273;49.962;9.768;2023-12-04T10:25:22;99589.03;;;2.72;56.21
38780;BME280;29273;49.962;9.768;2023-12-04T10:27:50;99581.03;;;2.74;55.27
38780;BME280;29273;49.962;9.768;2023-12-04T10:30:27;99594.47;;;2.79;57.47
38780;BME280;29273;49.962;9.768;2023-12-04T10:32:58;99596.13;;;2.80;57.53
38780;BME280;29273;49.962;9.768;2023-12-04T10:35:29;99604.13;;;2.78;56.53
38780;BME280;29273;49.962;9.768;2023-12-04T10:37:58;99619.97;;;2.77;55.59
38780;BME280;29273;49.962;9.768;2023-12-04T10:40:25;99606.75;;;2.78;55.65
38780;BME280;29273;49.962;9.768;2023-12-04T10:42:51;99599.69;;;2.79;55.75
38780;BME280;29273;49.962;9.768;2023-12-04T10:45:17;99585.66;;;2.80;55.72
38780;BME280;29273;49.962;9.768;2023-12-04T10:47:43;99582.56;;;2.85;56.17
38780;BME280;29273;49.962;9.768;2023-12-04T10:50:10;99575.38;;;2.87;56.02
38780;BME280;29273;49.962;9.768;2023-12-04T10:52:38;99555.78;;;2.91;56.07
38780;BME280;29273;49.962;9.768;2023-12-04T10:55:06;99553.81;;;2.93;55.93
38780;BME280;29273;49.962;9.768;2023-12-04T10:57:36;99561.84;;;3.00;56.64
38780;BME280;29273;49.962;9.768;2023-12-04T11:00:04;99567.75;;;3.02;56.21
38780;BME280;29273;49.962;9.768;2023-12-04T11:02:34;99577.06;;;3.04;56.06
38780;BME280;29273;49.962;9.768;2023-12-04T11:05:12;99571.53;;;3.07;57.27
38780;BME280;29273;49.962;9.768;2023-12-04T11:07:50;99566.78;;;3.11;57.32
38780;BME280;29273;49.962;9.768;2023-12-04T11:10:21;99563.22;;;3.12;56.40
38780;BME280;29273;49.962;9.768;2023-12-04T11:12:51;99563.06;;;3.13;56.27
38780;BME280;29273;49.962;9.768;2023-12-04T11:15:23;99558.47;;;3.15;56.24
38780;BME280;29273;49.962;9.768;2023-12-04T11:17:54;99549.66;;;3.17;56.26
38780;BME280;29273;49.962;9.768;2023-12-04T11:20:24;99550.47;;;3.17;55.70
38780;BME280;29273;49.962;9.768;2023-12-04T11:22:53;99544.91;;;3.20;55.91
38780;BME280;29273;49.962;9.768;2023-12-04T11:25:19;99543.09;;;3.21;55.78
38780;BME280;29273;49.962;9.768;2023-12-04T11:27:48;99543.91;;;3.21;55.66
38780;BME280;29273;49.962;9.768;2023-12-04T11:30:15;99545.41;;;3.24;55.67
38780;BME280;29273;49.962;9.768;2023-12-04T11:32:45;99548.19;;;3.30;56.71
38780;BME280;29273;49.962;9.768;2023-12-04T11:35:18;99543.63;;;3.32;56.80
38780;BME280;29273;49.962;9.768;2023-12-04T11:37:47;99525.31;;;3.32;56.37
38780;BME280;29273;49.962;9.768;2023-12-04T11:40:15;99546.41;;;3.31;55.82
38780;BME280;29273;49.962;9.768;2023-12-04T11:42:41;99544.44;;;3.33;55.33
38780;BME280;29273;49.962;9.768;2023-12-04T11:45:07;99541.66;;;3.34;55.54
38780;BME280;29273;49.962;9.768;2023-12-04T11:47:50;99541.97;;;3.40;57.21
38780;BME280;29273;49.962;9.768;2023-12-04T11:50:18;99529.09;;;3.38;55.55
38780;BME280;29273;49.962;9.768;2023-12-04T11:52:44;99515.81;;;3.40;55.49
38780;BME280;29273;49.962;9.768;2023-12-04T11:55:09;99519.91;;;3.42;55.27
38780;BME280;29273;49.962;9.768;2023-12-04T11:57:39;99514.34;;;3.45;55.50
38780;BME280;29273;49.962;9.768;2023-12-04T12:05:19;99498.81;;;3.52;55.49
38780;BME280;29273;49.962;9.768;2023-12-04T12:07:45;99478.69;;;3.52;54.85
38780;BME280;29273;49.962;9.768;2023-12-04T12:10:11;99464.28;;;3.57;55.25
38780;BME280;29273;49.962;9.768;2023-12-04T12:12:39;99455.75;;;3.63;55.64
38780;BME280;29273;49.962;9.768;2023-12-04T12:15:08;99460.34;;;3.69;56.35
38780;BME280;29273;49.962;9.768;2023-12-04T12:17:34;99471.78;;;3.68;54.57
38780;BME280;29273;49.962;9.768;2023-12-04T12:19:59;99470.50;;;3.72;54.93
38780;BME280;29273;49.962;9.768;2023-12-04T12:22:25;99479.00;;;3.74;54.08
38780;BME280;29273;49.962;9.768;2023-12-04T12:24:51;99471.78;;;3.76;53.16
38780;BME280;29273;49.962;9.768;2023-12-04T12:27:17;99471.63;;;3.78;53.05
38780;BME280;29273;49.962;9.768;2023-12-04T12:29:42;99475.06;;;3.78;53.40
38780;BME280;29273;49.962;9.768;2023-12-04T12:32:08;99469.84;;;3.78;54.37
38780;BME280;29273;49.962;9.768;2023-12-04T12:34:33;99477.53;;;3.80;54.94
38780;BME280;29273;49.962;9.768;2023-12-04T12:37:04;99457.88;;;3.84;54.88
38780;BME280;29273;49.962;9.768;2023-12-04T12:39:31;99469.31;;;3.83;53.52
38780;BME280;29273;49.962;9.768;2023-12-04T12:41:57;99461.47;;;3.83;53.73
38780;BME280;29273;49.962;9.768;2023-12-04T12:44:22;99450.19;;;3.82;53.90
38780;BME280;29273;49.962;9.768;2023-12-04T12:46:49;99443.97;;;3.83;54.53
38780;BME280;29273;49.962;9.768;2023-12-04T12:49:20;99439.03;;;3.88;54.93
38780;BME280;29273;49.962;9.768;2023-12-04T12:51:46;99427.25;;;3.84;54.17
38780;BME280;29273;49.962;9.768;2023-12-04T12:54:12;99423.66;;;3.85;53.47
38780;BME280;29273;49.962;9.768;2023-12-04T12:56:38;99418.41;;;3.85;53.94
38780;BME280;29273;49.962;9.768;2023-12-04T12:59:04;99413.81;;;3.87;54.43
38780;BME280;29273;49.962;9.768;2023-12-04T13:01:31;99407.44;;;3.90;54.67
38780;BME280;29273;49.962;9.768;2023-12-04T13:03:57;99404.81;;;3.90;54.05
38780;BME280;29273;49.962;9.768;2023-12-04T13:06:23;99398.41;;;3.93;53.97
38780;BME280;29273;49.962;9.768;2023-12-04T13:08:48;99399.06;;;3.95;54.10
38780;BME280;29273;49.962;9.768;2023-12-04T13:11:14;99389.25;;;3.97;54.27
38780;BME280;29273;49.962;9.768;2023-12-04T13:13:43;99384.94;;;4.04;55.22